Time;durP1;ratioP1;P1;durP2;ratioP2;P2;SDS_P1;SDS_P2;PMS_P1;PMS_P2;Temp;Humidity;BMP_temperature;BMP_pressure;BME280_temperature;BME280_humidity;BME280_pressure;Samples;Min_cycle;Max_cycle;Signal;HPM_P1;HPM_P2
2021/09/25 00:01:30;;;;;;;5.13;4.07;;;17.30;75.90;;;;;;20635821;28;20070;-82
2021/09/25 00:11:33;;;;;;;6.25;4.72;;;17.40;76.00;;;;;;20634308;28;20042;-82
2021/09/25 00:21:39;;;;;;;5.18;3.85;;;17.40;76.00;;;;;;20665658;28;20039;-81
2021/09/25 00:31:41;;;;;;;6.05;3.80;;;17.40;76.00;;;;;;20665689;28;20065;-82
2021/09/25 00:41:42;;;;;;;5.57;3.60;;;17.40;76.00;;;;;;20666114;28;20030;-82
2021/09/25 00:51:43;;;;;;;4.95;3.65;;;17.40;76.00;;;;;;20665214;28;20504;-82
2021/09/25 01:01:44;;;;;;;9.18;4.50;;;17.40;76.70;;;;;;20648421;28;20062;-83
2021/09/25 01:11:47;;;;;;;5.68;3.95;;;17.40;76.00;;;;;;20664904;28;20500;-82
2021/09/25 01:21:49;;;;;;;6.85;3.53;;;17.40;76.10;;;;;;20662571;28;20461;-82
2021/09/25 01:31:50;;;;;;;5.70;3.20;;;17.40;76.20;;;;;;20662803;28;20088;-82
2021/09/25 01:41:53;;;;;;;4.85;3.47;;;17.40;76.20;;;;;;20662323;28;20077;-82
2021/09/25 01:51:55;;;;;;;5.18;3.10;;;17.40;76.30;;;;;;20663096;28;20039;-82
2021/09/25 02:01:57;;;;;;;5.72;4.00;;;17.40;76.40;;;;;;20678270;28;20062;-82
2021/09/25 02:11:57;;;;;;;4.65;3.25;;;17.40;76.40;;;;;;20660245;28;20129;-84
2021/09/25 02:21:58;;;;;;;6.63;3.30;;;17.40;76.40;;;;;;20643909;28;20050;-81
2021/09/25 02:31:59;;;;;;;4.72;3.03;;;17.40;76.40;;;;;;20658954;28;20049;-82
2021/09/25 02:42:01;;;;;;;4.50;3.13;;;17.40;76.40;;;;;;20658632;28;20046;-82
2021/09/25 02:52:03;;;;;;;4.80;3.50;;;17.40;76.50;;;;;;20673013;28;20045;-83
2021/09/25 03:02:08;;;;;;;4.10;2.95;;;17.40;76.60;;;;;;20672478;28;20038;-82
2021/09/25 03:12:11;;;;;;;3.70;2.53;;;17.40;76.60;;;;;;20689225;28;20038;-82
2021/09/25 03:22:14;;;;;;;4.20;2.83;;;17.40;76.50;;;;;;20656355;28;20499;-81
2021/09/25 03:32:16;;;;;;;4.25;3.00;;;17.40;76.50;;;;;;20655352;28;20089;-82
2021/09/25 03:42:17;;;;;;;3.90;2.55;;;17.40;76.60;;;;;;20670086;28;20477;-82
2021/09/25 03:52:18;;;;;;;3.55;2.58;;;17.40;76.50;;;;;;20668506;28;20037;-82
2021/09/25 04:02:19;;;;;;;4.85;3.58;;;17.40;76.60;;;;;;20651869;28;20389;-83
2021/09/25 04:12:21;;;;;;;5.65;2.97;;;17.40;76.60;;;;;;20651359;28;20136;-81
2021/09/25 04:22:22;;;;;;;5.88;3.33;;;17.40;76.60;;;;;;20650120;28;20078;-82
2021/09/25 04:32:24;;;;;;;4.57;2.65;;;17.40;76.60;;;;;;20665432;28;20038;-82
2021/09/25 04:42:24;;;;;;;5.03;3.15;;;17.40;76.70;;;;;;20665357;28;20571;-82
2021/09/25 04:52:25;;;;;;;5.60;3.05;;;17.40;76.70;;;;;;20647485;28;20120;-81
2021/09/25 05:02:26;;;;;;;3.60;2.78;;;17.40;76.70;;;;;;20664959;28;20038;-83
2021/09/25 05:12:27;;;;;;;3.35;2.45;;;17.40;76.70;;;;;;20632014;28;20034;-83
2021/09/25 05:22:29;;;;;;;3.95;2.90;;;17.40;76.70;;;;;;20647419;28;20101;-82
2021/09/25 05:32:31;;;;;;;3.78;2.65;;;17.40;76.70;;;;;;20663677;28;20049;-82
2021/09/25 05:42:31;;;;;;;4.07;3.25;;;17.40;76.70;;;;;;20648031;28;20369;-83
2021/09/25 05:52:32;;;;;;;3.58;2.78;;;17.40;76.70;;;;;;20647922;28;20030;-83
2021/09/25 06:02:33;;;;;;;3.60;2.67;;;17.50;76.80;;;;;;20650823;28;20039;-82
2021/09/25 06:12:33;;;;;;;4.03;2.55;;;17.40;76.70;;;;;;20660776;28;20038;-82
2021/09/25 06:22:34;;;;;;;3.30;2.50;;;17.40;76.70;;;;;;20659797;28;20539;-77
2021/09/25 06:32:35;;;;;;;3.65;2.83;;;17.40;76.70;;;;;;20673553;28;20038;-76
2021/09/25 06:42:37;;;;;;;3.08;2.45;;;17.40;76.70;;;;;;20656418;28;20035;-79
2021/09/25 06:52:38;;;;;;;3.20;2.55;;;17.40;76.60;;;;;;20624424;28;20053;-78
2021/09/25 07:02:38;;;;;;;3.47;2.90;;;17.40;76.70;;;;;;20654175;28;20030;-77
2021/09/25 07:12:39;;;;;;;3.90;2.53;;;17.40;76.70;;;;;;20635872;28;20293;-78
2021/09/25 07:22:40;;;;;;;4.45;2.60;;;17.40;76.70;;;;;;20651538;28;20038;-75
2021/09/25 07:32:41;;;;;;;3.50;2.55;;;17.40;76.70;;;;;;20666836;28;20041;-78
2021/09/25 07:42:42;;;;;;;3.72;2.20;;;17.50;76.60;;;;;;20636832;28;20046;-78
2021/09/25 07:52:45;;;;;;;6.70;3.23;;;17.50;76.50;;;;;;20647572;28;20031;-75
2021/09/25 08:02:46;;;;;;;7.57;3.33;;;17.60;76.70;;;;;;20661111;28;20301;-77
2021/09/25 08:12:49;;;;;;;14.13;4.03;;;17.60;77.50;;;;;;20646077;28;20165;-75
2021/09/25 08:22:50;;;;;;;7.43;3.38;;;17.70;78.10;;;;;;20645132;28;20050;-74
2021/09/25 08:32:52;;;;;;;5.55;3.00;;;17.70;78.50;;;;;;20611999;28;20045;-75
2021/09/25 08:42:52;;;;;;;5.32;3.10;;;17.60;78.60;;;;;;20627283;28;20050;-73
2021/09/25 08:52:53;;;;;;;4.65;2.70;;;17.60;78.60;;;;;;20642688;28;20046;-73
2021/09/25 09:02:55;;;;;;;5.22;2.35;;;17.70;78.50;;;;;;20626029;28;20049;-73
2021/09/25 09:12:55;;;;;;;3.92;1.95;;;17.70;78.40;;;;;;20641879;28;20050;-71
2021/09/25 09:23:12;;;;;;;2.70;1.83;;;17.70;78.30;;;;;;20626204;28;20047;-78
2021/09/25 09:33:42;;;;;;;3.55;2.20;;;17.70;78.10;;;;;;20670632;28;20296;-76
2021/09/25 09:43:42;;;;;;;10.23;2.40;;;17.70;78.10;;;;;;20720672;28;20088;-72
2021/09/25 09:53:46;;;;;;;5.70;2.87;;;17.70;78.00;;;;;;20652627;28;20042;-74
2021/09/25 10:03:47;;;;;;;4.30;2.42;;;17.70;77.90;;;;;;20636128;28;20633;-75
2021/09/25 10:13:48;;;;;;;3.55;2.20;;;17.70;77.80;;;;;;20700022;28;20038;-78
2021/09/25 10:24:09;;;;;;;3.28;2.42;;;17.70;77.70;;;;;;21031383;23;20043;-76
2021/09/25 10:34:25;;;;;;;4.68;1.85;;;17.80;77.70;;;;;;20582900;28;20054;-78
2021/09/25 10:44:29;;;;;;;5.10;2.10;;;17.80;77.70;;;;;;20575732;28;20038;-80
2021/09/25 10:54:30;;;;;;;5.45;2.42;;;17.80;77.60;;;;;;20573359;28;20392;-76
2021/09/25 11:04:32;;;;;;;5.55;1.98;;;17.80;77.60;;;;;;20577661;28;20038;-79
2021/09/25 11:14:40;;;;;;;4.07;2.90;;;17.80;77.60;;;;;;20574543;28;20063;-80
2021/09/25 11:25:03;;;;;;;5.57;2.40;;;17.80;77.50;;;;;;20606815;28;20042;-82
2021/09/25 11:35:13;;;;;;;4.63;2.20;;;17.90;77.50;;;;;;20656030;28;20096;-82
2021/09/25 11:45:18;;;;;;;3.60;2.17;;;17.90;77.50;;;;;;20639170;28;20037;-78
2021/09/25 11:55:19;;;;;;;5.60;2.03;;;17.90;77.30;;;;;;20651540;28;20038;-78
2021/09/25 12:05:40;;;;;;;5.05;2.50;;;18.00;77.70;;;;;;20614008;28;20100;-75
2021/09/25 12:15:42;;;;;;;3.30;2.30;;;18.00;77.80;;;;;;20662984;28;20490;-79
2021/09/25 12:25:42;;;;;;;3.55;2.42;;;18.00;77.70;;;;;;20616016;28;20596;-77
2021/09/25 12:35:56;;;;;;;3.95;2.28;;;18.00;77.70;;;;;;20630587;28;20038;-77
2021/09/25 12:46:23;;;;;;;5.75;2.53;;;18.00;77.50;;;;;;20631644;28;20527;-77
2021/09/25 12:56:29;;;;;;;6.20;2.33;;;18.10;77.50;;;;;;20667017;28;20054;-78
2021/09/25 13:06:30;;;;;;;;;;;18.00;77.30;;;;;;20641553;28;20289;-80
2021/09/25 13:16:31;;;;;;;2.72;1.95;;;18.10;77.30;;;;;;20661303;28;19980;-83
2021/09/25 13:26:33;;;;;;;2.38;1.95;;;18.10;77.10;;;;;;20648424;28;20054;-81
2021/09/25 13:36:33;;;;;;;3.28;2.17;;;18.10;77.50;;;;;;20672695;28;20046;-77
2021/09/25 13:46:34;;;;;;;7.82;2.83;;;18.20;78.20;;;;;;20625964;28;20061;-77
2021/09/25 13:56:35;;;;;;;7.85;2.40;;;18.30;78.70;;;;;;20674894;28;20121;-77
2021/09/25 14:06:35;;;;;;;3.15;2.10;;;18.40;79.20;;;;;;20637035;28;20177;-77
2021/09/25 14:16:36;;;;;;;3.72;2.60;;;18.40;79.40;;;;;;20672648;28;20044;-78
2021/09/25 14:26:37;;;;;;;2.72;1.65;;;18.50;79.40;;;;;;20671558;28;20078;-78
2021/09/25 14:36:38;;;;;;;4.32;2.05;;;18.50;79.30;;;;;;20672383;28;20070;-78
2021/09/25 14:46:39;;;;;;;7.40;3.83;;;18.60;79.40;;;;;;20638426;28;20038;-79
2021/09/25 14:56:40;;;;;;;3.83;2.03;;;18.70;79.40;;;;;;20656346;28;20046;-79
2021/09/25 15:06:42;;;;;;;5.82;2.42;;;18.70;79.40;;;;;;20638099;28;20443;-78
2021/09/25 15:16:44;;;;;;;3.67;1.98;;;18.70;79.30;;;;;;20652297;28;20104;-77
2021/09/25 15:26:46;;;;;;;3.83;1.98;;;18.70;79.00;;;;;;20634910;28;20129;-77
2021/09/25 15:36:48;;;;;;;4.65;2.13;;;18.70;78.80;;;;;;20645586;28;20038;-77
2021/09/25 15:46:49;;;;;;;7.07;2.50;;;18.70;78.70;;;;;;20648780;28;20033;-74
2021/09/25 15:56:50;;;;;;;3.15;1.85;;;18.80;78.50;;;;;;20674907;28;20107;-77
2021/09/25 16:06:53;;;;;;;6.40;1.85;;;18.70;78.30;;;;;;20700006;28;20050;-77
2021/09/25 16:16:55;;;;;;;2.67;1.73;;;18.70;78.20;;;;;;20614143;28;20100;-75
2021/09/25 16:26:57;;;;;;;3.50;1.92;;;18.60;78.10;;;;;;20631118;28;20034;-76
2021/09/25 16:36:58;;;;;;;4.60;1.77;;;18.70;78.10;;;;;;20638326;28;20046;-75
2021/09/25 16:47:00;;;;;;;2.42;1.63;;;18.60;78.10;;;;;;20641189;28;20124;-71
2021/09/25 16:57:00;;;;;;;2.65;1.88;;;18.60;78.20;;;;;;20645815;28;20050;-72
2021/09/25 17:07:01;;;;;;;4.55;1.60;;;18.60;78.30;;;;;;20564645;28;20528;-74
2021/09/25 17:17:02;;;;;;;2.67;1.88;;;18.60;78.30;;;;;;20580674;28;20047;-73
2021/09/25 17:27:02;;;;;;;2.75;1.80;;;18.50;78.20;;;;;;20580944;28;20038;-71
2021/09/25 17:37:03;;;;;;;2.05;1.52;;;18.50;78.20;;;;;;20691431;28;20096;-71
2021/09/25 17:47:04;;;;;;;4.45;1.75;;;18.50;78.20;;;;;;20707613;28;20036;-73
2021/09/25 17:57:05;;;;;;;2.10;1.73;;;18.50;78.90;;;;;;20726195;28;20042;-73
2021/09/25 18:07:06;;;;;;;3.05;1.88;;;18.50;78.20;;;;;;20679760;28;20113;-74
2021/09/25 18:17:06;;;;;;;1.90;1.30;;;18.50;78.10;;;;;;20674424;28;20118;-74
2021/09/25 18:27:07;;;;;;;2.00;1.33;;;18.50;78.10;;;;;;20675873;28;20069;-74
2021/09/25 18:37:08;;;;;;;2.22;1.35;;;18.50;78.00;;;;;;20648717;28;20042;-74
2021/09/25 18:47:08;;;;;;;2.10;1.35;;;18.50;78.00;;;;;;20655558;28;20062;-72
2021/09/25 18:57:09;;;;;;;2.60;1.40;;;18.50;78.10;;;;;;20654286;28;20153;-72
2021/09/25 19:07:09;;;;;;;3.45;1.63;;;18.50;78.80;;;;;;20709588;28;20295;-73
2021/09/25 19:17:10;;;;;;;2.40;1.60;;;18.40;78.70;;;;;;20716389;28;20046;-75
2021/09/25 19:27:11;;;;;;;2.43;1.90;;;18.40;78.00;;;;;;20733231;28;20042;-74
2021/09/25 19:37:12;;;;;;;4.45;2.30;;;18.40;77.90;;;;;;20716057;28;20293;-71
2021/09/25 19:47:13;;;;;;;3.92;2.50;;;18.40;78.60;;;;;;20714944;28;20036;-74
2021/09/25 19:57:13;;;;;;;5.20;2.70;;;18.40;77.90;;;;;;20730437;28;20559;-71
2021/09/25 20:07:14;;;;;;;3.17;2.30;;;18.40;77.90;;;;;;20623029;28;20382;-72
2021/09/25 20:17:16;;;;;;;3.72;2.53;;;18.40;77.90;;;;;;20600158;28;20309;-70
2021/09/25 20:27:18;;;;;;;4.50;2.50;;;18.40;77.80;;;;;;20621320;28;20054;-72
2021/09/25 20:37:18;;;;;;;3.10;2.03;;;18.40;77.80;;;;;;20601647;28;20038;-73
2021/09/25 20:47:19;;;;;;;4.00;2.40;;;18.40;77.70;;;;;;20587986;28;20061;-72
2021/09/25 20:57:19;;;;;;;4.00;2.17;;;18.30;77.60;;;;;;20594974;28;20289;-72
2021/09/25 21:07:20;;;;;;;3.97;2.35;;;18.30;77.50;;;;;;20613100;28;20369;-72
2021/09/25 21:17:21;;;;;;;3.10;2.15;;;18.30;77.50;;;;;;20594564;28;20031;-71
2021/09/25 21:27:21;;;;;;;4.65;1.90;;;18.30;77.50;;;;;;20623401;28;20042;-71
2021/09/25 21:37:22;;;;;;;4.68;2.65;;;18.20;77.40;;;;;;20613753;28;20142;-75
2021/09/25 21:47:23;;;;;;;4.18;2.10;;;18.30;77.40;;;;;;20571829;28;20539;-73
2021/09/25 21:57:26;;;;;;;3.00;2.00;;;18.30;77.30;;;;;;20623671;28;20038;-72
2021/09/25 22:07:26;;;;;;;2.45;2.15;;;18.20;77.30;;;;;;20668235;28;20388;-72
2021/09/25 22:17:27;;;;;;;3.33;2.20;;;18.20;77.20;;;;;;20586419;28;20039;-71
2021/09/25 22:27:28;;;;;;;4.72;2.53;;;18.30;77.20;;;;;;20609896;28;20035;-73
2021/09/25 22:37:34;;;;;;;5.35;2.45;;;18.20;77.20;;;;;;20590201;28;20049;-73
2021/09/25 22:47:35;;;;;;;4.25;2.40;;;18.20;77.10;;;;;;20578152;28;20457;-72
2021/09/25 22:57:35;;;;;;;2.97;2.00;;;18.20;77.10;;;;;;20560964;28;20130;-73
2021/09/25 23:07:36;;;;;;;3.00;2.22;;;18.20;77.10;;;;;;20575176;28;20035;-72
2021/09/25 23:17:37;;;;;;;3.30;2.28;;;18.20;77.00;;;;;;20557764;28;20041;-72
2021/09/25 23:27:37;;;;;;;4.07;2.40;;;18.30;77.00;;;;;;20573862;28;20046;-72
2021/09/25 23:37:38;;;;;;;3.67;2.25;;;18.20;76.90;;;;;;20572902;28;20301;-72
2021/09/25 23:47:39;;;;;;;4.07;2.15;;;18.20;76.90;;;;;;20540842;28;20030;-72
2021/09/25 23:57:39;;;;;;;2.28;1.98;;;18.20;76.80;;;;;;20570912;28;20027;-72
